createdAt,value
2022-12-20T00:01:50.429Z,9.60
2022-12-20T00:04:17.279Z,8.67
2022-12-20T00:06:43.969Z,8.33
2022-12-20T00:09:12.912Z,8.33
2022-12-20T00:11:41.140Z,9.17
2022-12-20T00:14:10.966Z,8.73
2022-12-20T00:16:38.170Z,9.23
2022-12-20T00:19:07.012Z,8.50
2022-12-20T00:21:36.618Z,9.37
2022-12-20T00:24:05.041Z,8.23
2022-12-20T00:26:33.631Z,7.80
2022-12-20T00:29:00.798Z,8.40
2022-12-20T00:31:29.679Z,7.87
2022-12-20T00:33:58.045Z,7.80
2022-12-20T00:36:27.255Z,8.10
2022-12-20T00:38:58.502Z,7.80
2022-12-20T00:41:28.270Z,8.20
2022-12-20T00:43:55.599Z,8.10
2022-12-20T00:46:23.554Z,8.30
2022-12-20T00:48:53.441Z,7.93
2022-12-20T00:51:22.297Z,8.30
2022-12-20T00:53:53.639Z,8.47
2022-12-20T00:56:20.724Z,8.90
2022-12-20T00:58:49.108Z,7.93
2022-12-20T01:01:30.276Z,7.97
2022-12-20T01:03:59.783Z,8.20
2022-12-20T01:06:27.438Z,8.37
2022-12-20T01:08:55.186Z,8.47
2022-12-20T01:11:28.439Z,8.20
2022-12-20T01:13:58.025Z,7.70
2022-12-20T01:16:29.688Z,8.03
2022-12-20T01:19:00.354Z,8.23
2022-12-20T01:21:28.146Z,7.73
2022-12-20T01:23:56.076Z,8.30
2022-12-20T01:26:26.570Z,8.33
2022-12-20T01:28:56.007Z,7.63
2022-12-20T01:31:28.688Z,7.70
2022-12-20T01:33:55.738Z,8.10
2022-12-20T01:36:25.264Z,8.90
2022-12-20T01:38:59.974Z,8.10
2022-12-20T01:41:27.637Z,8.37
2022-12-20T01:43:55.742Z,8.50
2022-12-20T01:46:25.466Z,8.10
2022-12-20T01:48:58.007Z,9.20
2022-12-20T01:51:28.317Z,8.40
2022-12-20T01:54:06.916Z,7.20
2022-12-20T01:56:34.940Z,7.53
2022-12-20T01:59:02.281Z,8.57
2022-12-20T02:01:31.484Z,8.93
2022-12-20T02:04:01.221Z,8.10
2022-12-20T02:06:30.111Z,8.47
2022-12-20T02:09:04.301Z,8.87
2022-12-20T02:12:09.368Z,8.53
2022-12-20T02:14:44.296Z,8.53
2022-12-20T02:17:44.037Z,8.83
2022-12-20T02:20:33.319Z,8.10
2022-12-20T02:23:22.488Z,8.40
2022-12-20T02:25:49.127Z,10.00
2022-12-20T02:28:42.051Z,8.83
2022-12-20T02:31:15.023Z,8.13
2022-12-20T02:33:48.042Z,8.57
2022-12-20T02:36:16.856Z,8.70
2022-12-20T02:38:44.812Z,8.47
2022-12-20T02:41:26.012Z,8.40
2022-12-20T02:44:21.294Z,8.37
2022-12-20T02:46:51.390Z,8.23
2022-12-20T02:49:22.357Z,7.63
2022-12-20T02:51:52.333Z,9.80
2022-12-20T02:54:19.846Z,7.80
2022-12-20T02:57:22.406Z,8.27
2022-12-20T03:00:04.172Z,8.47
2022-12-20T03:02:51.636Z,8.50
2022-12-20T03:05:21.371Z,8.43
2022-12-20T03:07:50.333Z,8.40
2022-12-20T03:10:20.302Z,8.20
2022-12-20T03:12:51.688Z,8.37
2022-12-20T03:15:18.716Z,7.37
2022-12-20T03:17:45.482Z,8.27
2022-12-20T03:20:12.367Z,9.20
2022-12-20T03:22:41.466Z,8.10
2022-12-20T03:25:10.768Z,8.50
2022-12-20T03:27:39.568Z,8.47
2022-12-20T03:30:07.024Z,9.45
2022-12-20T03:32:33.730Z,8.93
2022-12-20T03:35:00.402Z,9.10
2022-12-20T03:37:29.785Z,8.70
2022-12-20T03:40:01.237Z,8.80
2022-12-20T03:42:27.950Z,9.90
2022-12-20T03:44:57.084Z,9.00
2022-12-20T03:47:23.738Z,9.20
2022-12-20T03:49:51.884Z,8.93
2022-12-20T03:52:21.217Z,8.00
2022-12-20T03:54:50.092Z,8.60
2022-12-20T03:57:16.825Z,9.13
2022-12-20T03:59:43.481Z,9.27
2022-12-20T04:02:10.474Z,9.47
2022-12-20T04:04:37.313Z,9.37
2022-12-20T04:07:06.429Z,9.37
2022-12-20T04:09:33.231Z,9.57
2022-12-20T04:12:00.518Z,10.17
2022-12-20T04:14:27.164Z,9.87
2022-12-20T04:16:53.864Z,9.43
2022-12-20T04:19:20.684Z,10.33
2022-12-20T04:21:49.516Z,10.48
2022-12-20T04:24:16.399Z,10.07
2022-12-20T04:26:45.281Z,9.73
2022-12-20T04:29:12.033Z,9.77
2022-12-20T04:31:38.770Z,9.63
2022-12-20T04:34:07.600Z,9.03
2022-12-20T04:36:39.049Z,9.70
2022-12-20T04:39:05.737Z,9.70
2022-12-20T04:41:32.541Z,9.83
2022-12-20T04:43:59.635Z,9.03
2022-12-20T04:46:29.150Z,10.05
2022-12-20T04:48:58.516Z,9.27
2022-12-20T04:51:28.855Z,9.13
2022-12-20T04:53:58.499Z,9.33
2022-12-20T04:56:30.320Z,8.43
2022-12-20T04:58:59.114Z,9.23
2022-12-20T05:01:28.356Z,9.17
2022-12-20T05:03:58.989Z,8.60
2022-12-20T05:06:28.171Z,8.70
2022-12-20T05:08:57.339Z,9.33
2022-12-20T05:11:24.026Z,8.80
2022-12-20T05:13:50.795Z,8.00
2022-12-20T05:16:17.518Z,8.10
2022-12-20T05:18:49.812Z,8.57
2022-12-20T05:21:38.128Z,8.23
2022-12-20T05:24:23.679Z,9.18
2022-12-20T05:26:50.341Z,7.63
2022-12-20T05:29:19.165Z,8.10
2022-12-20T05:31:45.930Z,7.87
2022-12-20T05:34:12.717Z,7.67
2022-12-20T05:36:44.477Z,7.90
2022-12-20T05:39:16.297Z,7.50
2022-12-20T05:41:43.065Z,8.03
2022-12-20T05:44:09.729Z,7.33
2022-12-20T05:46:36.569Z,7.73
2022-12-20T05:49:03.337Z,7.53
2022-12-20T05:51:30.059Z,7.10
2022-12-20T05:53:58.924Z,7.30
2022-12-20T05:56:25.606Z,7.27
2022-12-20T05:58:52.287Z,7.50
2022-12-20T06:01:19.048Z,7.23
2022-12-20T06:03:48.626Z,6.80
2022-12-20T06:06:18.366Z,7.33
2022-12-20T06:08:48.140Z,7.70
2022-12-20T06:11:14.906Z,7.00
2022-12-20T06:13:41.560Z,6.63
2022-12-20T06:16:10.665Z,6.93
2022-12-20T06:18:37.366Z,6.93
2022-12-20T06:21:04.161Z,6.60
2022-12-20T06:23:31.205Z,6.87
2022-12-20T06:26:00.639Z,6.60
2022-12-20T06:28:27.705Z,6.30
2022-12-20T06:30:55.765Z,7.30
2022-12-20T06:33:25.124Z,6.67
2022-12-20T06:35:54.688Z,6.97
2022-12-20T06:38:23.536Z,6.73
2022-12-20T06:40:50.197Z,7.40
2022-12-20T06:43:19.805Z,6.43
2022-12-20T06:45:46.512Z,7.00
2022-12-20T06:48:13.350Z,7.33
2022-12-20T06:50:40.196Z,6.97
2022-12-20T06:53:07.319Z,6.87
2022-12-20T06:55:34.536Z,7.13
2022-12-20T06:58:03.748Z,7.33
2022-12-20T07:00:30.457Z,7.53
2022-12-20T07:02:57.312Z,6.43
2022-12-20T07:05:24.206Z,7.00
2022-12-20T07:07:51.069Z,6.67
2022-12-20T07:10:20.405Z,6.70
2022-12-20T07:12:51.800Z,6.27
2022-12-20T07:15:18.526Z,6.93
2022-12-20T07:17:45.380Z,6.23
2022-12-20T07:20:15.053Z,6.77
2022-12-20T07:22:44.565Z,6.60
2022-12-20T07:25:11.407Z,6.13
2022-12-20T07:27:40.308Z,6.30
2022-12-20T07:30:07.783Z,6.63
2022-12-20T07:32:34.663Z,6.60
2022-12-20T07:35:01.428Z,5.93
2022-12-20T07:37:31.480Z,6.53
2022-12-20T07:40:00.365Z,6.47
2022-12-20T07:42:29.026Z,5.93
2022-12-20T07:45:04.927Z,6.47
2022-12-20T07:47:31.628Z,7.20
2022-12-20T07:50:05.322Z,6.40
2022-12-20T07:52:34.008Z,6.27
2022-12-20T07:55:02.987Z,5.90
2022-12-20T07:57:49.294Z,6.40
2022-12-20T08:00:18.670Z,7.03
2022-12-20T08:02:57.884Z,6.70
2022-12-20T08:05:29.764Z,6.50
2022-12-20T08:07:59.743Z,5.93
2022-12-20T08:10:30.408Z,6.07
2022-12-20T08:12:58.355Z,6.20
2022-12-20T08:15:25.835Z,5.93
2022-12-20T08:17:52.495Z,6.87
2022-12-20T08:20:19.601Z,6.83
2022-12-20T08:22:46.397Z,6.47
2022-12-20T08:25:15.430Z,6.40
2022-12-20T08:27:42.272Z,6.67
2022-12-20T08:30:12.535Z,6.67
2022-12-20T08:32:39.328Z,6.50
2022-12-20T08:35:06.657Z,7.43
2022-12-20T08:37:33.678Z,6.90
2022-12-20T08:40:02.676Z,6.90
2022-12-20T08:42:29.943Z,6.20
2022-12-20T08:44:56.654Z,6.63
2022-12-20T08:47:23.693Z,8.10
2022-12-20T08:49:52.851Z,7.57
2022-12-20T08:52:19.510Z,7.13
2022-12-20T08:54:50.963Z,7.20
2022-12-20T08:57:20.239Z,7.63
2022-12-20T08:59:46.983Z,7.20
2022-12-20T09:02:16.078Z,7.10
2022-12-20T09:04:44.426Z,7.70
2022-12-20T09:07:13.589Z,7.17
2022-12-20T09:09:40.272Z,6.83
2022-12-20T09:12:09.422Z,8.07
2022-12-20T09:14:36.062Z,8.67
2022-12-20T09:17:02.828Z,9.27
2022-12-20T09:19:31.740Z,9.27
2022-12-20T09:21:58.478Z,9.17
2022-12-20T09:24:25.408Z,9.75
2022-12-20T09:26:54.235Z,9.07
2022-12-20T09:29:29.558Z,9.93
2022-12-20T09:32:01.397Z,9.93
2022-12-20T09:34:28.061Z,9.20
2022-12-20T09:36:57.030Z,8.97
2022-12-20T09:39:25.949Z,9.63
2022-12-20T09:41:52.712Z,9.67
2022-12-20T09:44:30.703Z,9.17
2022-12-20T09:47:10.369Z,9.00
2022-12-20T09:49:44.796Z,9.40
2022-12-20T09:52:33.157Z,9.90
2022-12-20T09:55:22.675Z,9.20
2022-12-20T09:58:01.444Z,10.70
2022-12-20T10:00:30.251Z,9.57
2022-12-20T10:03:06.448Z,9.90
2022-12-20T10:05:44.013Z,11.23
2022-12-20T10:08:27.314Z,12.00
2022-12-20T10:10:59.526Z,12.93
2022-12-20T10:13:28.936Z,14.70
2022-12-20T10:16:10.482Z,14.27
2022-12-20T10:19:00.393Z,14.10
2022-12-20T10:21:48.915Z,13.27
2022-12-20T10:24:19.856Z,13.37
2022-12-20T10:26:50.692Z,11.90
2022-12-20T10:29:18.982Z,12.37
2022-12-20T10:31:45.874Z,11.70
2022-12-20T10:34:12.631Z,10.33
2022-12-20T10:36:41.976Z,11.83
2022-12-20T10:39:10.267Z,11.30
2022-12-20T10:41:42.875Z,10.43
2022-12-20T10:44:20.183Z,10.20
2022-12-20T10:46:50.807Z,10.10
2022-12-20T10:49:24.119Z,9.33
2022-12-20T10:51:56.438Z,9.50
2022-12-20T10:54:34.869Z,9.53
2022-12-20T10:57:26.120Z,9.30
2022-12-20T11:00:05.630Z,9.40
2022-12-20T11:02:40.536Z,9.13
2022-12-20T11:05:14.418Z,8.23
2022-12-20T11:11:19.592Z,7.83
2022-12-20T11:13:47.813Z,8.00
2022-12-20T11:16:34.952Z,7.17
2022-12-20T11:19:26.255Z,6.80
2022-12-20T11:22:32.727Z,7.27
2022-12-20T11:25:29.714Z,6.90
2022-12-20T11:28:14.661Z,6.60
2022-12-20T11:30:50.792Z,6.27
2022-12-20T11:33:20.261Z,6.60
2022-12-20T11:36:20.907Z,6.53
2022-12-20T11:39:01.794Z,6.40
2022-12-20T11:41:37.817Z,5.87
2022-12-20T11:44:31.098Z,6.00
2022-12-20T11:47:26.612Z,6.30
2022-12-20T11:50:02.903Z,5.40
2022-12-20T11:52:41.923Z,6.20
2022-12-20T11:55:32.046Z,6.00
2022-12-20T11:58:21.170Z,6.40
2022-12-20T12:01:04.141Z,5.57
2022-12-20T12:03:35.351Z,5.37
2022-12-20T12:06:16.295Z,5.10
2022-12-20T12:08:55.023Z,5.67
2022-12-20T12:14:47.021Z,5.57
2022-12-20T12:17:32.541Z,5.63
2022-12-20T12:20:16.833Z,5.50
2022-12-20T12:22:45.066Z,5.33
2022-12-20T12:25:17.260Z,5.30
2022-12-20T12:27:44.211Z,5.90
2022-12-20T12:30:16.029Z,5.40
2022-12-20T12:32:54.101Z,4.80
2022-12-20T12:35:55.045Z,4.97
2022-12-20T12:39:12.082Z,5.17
2022-12-20T12:42:08.782Z,4.80
2022-12-20T12:44:59.472Z,4.80
2022-12-20T12:47:40.203Z,4.90
2022-12-20T12:50:24.348Z,5.30
2022-12-20T12:53:20.807Z,5.77
2022-12-20T12:56:12.984Z,5.70
2022-12-20T12:59:06.465Z,5.28
2022-12-20T13:02:16.752Z,5.30
2022-12-20T13:04:55.523Z,5.60
2022-12-20T13:07:31.061Z,6.30
2022-12-20T13:09:58.408Z,6.73
2022-12-20T13:12:37.604Z,6.10
2022-12-20T13:15:32.614Z,6.50
2022-12-20T13:18:14.010Z,7.20
2022-12-20T13:20:43.486Z,7.13
2022-12-20T13:23:13.110Z,7.57
2022-12-20T13:25:48.612Z,6.90
2022-12-20T13:28:24.542Z,7.50
2022-12-20T13:30:54.233Z,7.47
2022-12-20T13:33:42.263Z,8.20
2022-12-20T13:36:12.050Z,7.87
2022-12-20T13:38:55.674Z,7.10
2022-12-20T13:41:38.683Z,7.57
2022-12-20T13:44:14.548Z,7.00
2022-12-20T13:46:46.845Z,7.70
2022-12-20T13:49:28.737Z,7.17
2022-12-20T13:52:21.681Z,7.30
2022-12-20T13:54:52.309Z,6.60
2022-12-20T13:57:41.732Z,7.57
2022-12-20T14:00:23.057Z,6.87
2022-12-20T14:02:50.291Z,6.80
2022-12-20T14:05:32.592Z,5.73
2022-12-20T14:08:07.225Z,6.43
2022-12-20T14:10:35.691Z,6.73
2022-12-20T14:13:06.100Z,6.97
2022-12-20T14:15:35.068Z,5.63
2022-12-20T14:18:26.163Z,5.90
2022-12-20T14:20:59.418Z,5.67
2022-12-20T14:23:47.582Z,5.10
2022-12-20T14:26:23.535Z,5.53
2022-12-20T14:29:01.407Z,5.50
2022-12-20T14:31:42.649Z,5.68
2022-12-20T14:34:10.534Z,4.90
2022-12-20T14:36:46.142Z,4.40
2022-12-20T14:39:28.635Z,5.07
2022-12-20T14:41:58.163Z,5.37
2022-12-20T14:44:27.254Z,5.30
2022-12-20T14:47:01.817Z,4.83
2022-12-20T14:49:39.816Z,4.83
2022-12-20T14:52:06.919Z,4.27
2022-12-20T14:57:27.685Z,4.40
2022-12-20T15:00:06.986Z,4.07
2022-12-20T15:02:52.669Z,3.97
2022-12-20T15:05:39.732Z,3.57
2022-12-20T15:08:23.168Z,4.50
2022-12-20T15:10:51.847Z,4.10
2022-12-20T15:13:21.565Z,3.57
2022-12-20T15:15:48.304Z,3.93
2022-12-20T15:18:20.235Z,4.25
2022-12-20T15:20:53.967Z,3.90
2022-12-20T15:23:22.121Z,4.10
2022-12-20T15:25:49.409Z,3.77
2022-12-20T15:28:22.174Z,3.73
2022-12-20T15:30:50.535Z,3.43
2022-12-20T15:33:25.861Z,3.50
2022-12-20T15:35:53.899Z,3.17
2022-12-20T15:39:03.623Z,3.47
2022-12-20T15:41:27.351Z,4.10
2022-12-20T15:44:03.410Z,3.70
2022-12-20T15:46:32.319Z,3.07
2022-12-20T15:48:59.479Z,3.07
2022-12-20T15:51:36.285Z,3.67
2022-12-20T15:54:30.013Z,3.10
2022-12-20T15:56:58.398Z,3.23
2022-12-20T16:02:25.622Z,3.33
2022-12-20T16:04:56.024Z,3.30
2022-12-20T16:07:28.098Z,3.07
2022-12-20T16:09:54.967Z,3.27
2022-12-20T16:12:25.763Z,3.53
2022-12-20T16:14:52.665Z,3.08
2022-12-20T16:17:19.307Z,3.20
2022-12-20T16:19:46.264Z,3.40
2022-12-20T16:22:22.207Z,3.30
2022-12-20T16:24:49.232Z,3.80
2022-12-20T16:27:15.949Z,3.40
2022-12-20T16:29:42.741Z,3.17
2022-12-20T16:32:16.450Z,2.77
2022-12-20T16:34:43.772Z,3.17
2022-12-20T16:37:11.809Z,3.03
2022-12-20T16:39:38.522Z,3.13
2022-12-20T16:42:17.005Z,3.50
2022-12-20T16:44:45.317Z,3.23
2022-12-20T16:47:12.736Z,3.07
2022-12-20T16:49:40.311Z,3.70
2022-12-20T16:52:18.377Z,3.03
2022-12-20T16:54:47.294Z,3.70
2022-12-20T16:57:14.475Z,3.67
2022-12-20T16:59:41.402Z,3.57
2022-12-20T17:02:33.994Z,3.73
2022-12-20T17:05:02.056Z,3.63
2022-12-20T17:07:28.737Z,3.30
2022-12-20T17:10:10.336Z,3.60
2022-12-20T17:12:37.025Z,3.83
2022-12-20T17:15:04.783Z,3.37
2022-12-20T17:17:31.472Z,3.67
2022-12-20T17:19:58.850Z,4.10
2022-12-20T17:25:20.016Z,3.83
2022-12-20T17:27:49.559Z,3.67
2022-12-20T17:30:16.561Z,3.77
2022-12-20T17:32:45.875Z,3.40
2022-12-20T17:35:28.330Z,3.63
2022-12-20T17:37:57.290Z,3.83
2022-12-20T17:40:29.777Z,3.47
2022-12-20T17:42:56.673Z,3.50
2022-12-20T17:45:32.725Z,3.67
2022-12-20T17:48:04.094Z,3.17
2022-12-20T17:50:30.790Z,3.63
2022-12-20T17:52:59.982Z,3.30
2022-12-20T17:55:30.522Z,3.27
2022-12-20T17:57:57.265Z,3.60
2022-12-20T18:00:38.169Z,3.60
2022-12-20T18:03:20.017Z,3.20
2022-12-20T18:05:59.649Z,3.20
2022-12-20T18:08:33.116Z,3.17
2022-12-20T18:10:59.827Z,3.73
2022-12-20T18:13:26.522Z,4.15
2022-12-20T18:15:53.340Z,3.60
2022-12-20T18:18:19.991Z,3.13
2022-12-20T18:20:48.862Z,3.40
2022-12-20T18:23:20.300Z,3.30
2022-12-20T18:25:49.442Z,2.80
2022-12-20T18:28:18.668Z,3.60
2022-12-20T18:30:45.455Z,3.40
2022-12-20T18:33:12.333Z,3.57
2022-12-20T18:35:41.477Z,3.53
2022-12-20T18:38:10.334Z,3.27
2022-12-20T18:40:46.247Z,3.67
2022-12-20T18:43:15.139Z,3.53
2022-12-20T18:45:46.252Z,3.40
2022-12-20T18:48:13.016Z,3.88
2022-12-20T18:50:39.701Z,3.50
2022-12-20T18:53:06.771Z,3.83
2022-12-20T18:55:39.991Z,3.40
2022-12-20T18:58:06.867Z,3.37
2022-12-20T19:00:33.642Z,3.33
2022-12-20T19:03:02.208Z,3.10
2022-12-20T19:05:33.131Z,3.30
2022-12-20T19:08:02.490Z,3.10
2022-12-20T19:10:33.077Z,3.50
2022-12-20T19:13:05.551Z,3.63
2022-12-20T19:15:35.108Z,3.67
2022-12-20T19:18:04.427Z,3.87
2022-12-20T19:20:31.129Z,3.53
2022-12-20T19:22:57.801Z,3.67
2022-12-20T19:25:24.485Z,3.67
2022-12-20T19:27:53.371Z,3.67
2022-12-20T19:30:20.097Z,3.07
2022-12-20T19:32:46.920Z,3.40
2022-12-20T19:35:52.757Z,3.40
2022-12-20T19:38:03.031Z,3.47
2022-12-20T19:40:30.351Z,3.60
2022-12-20T19:42:59.256Z,4.00
2022-12-20T19:45:28.081Z,3.90
2022-12-20T19:47:57.653Z,3.70
2022-12-20T19:50:26.499Z,3.93
2022-12-20T19:52:53.175Z,3.60
2022-12-20T19:55:19.922Z,3.40
2022-12-20T19:57:46.551Z,3.80
2022-12-20T20:00:13.766Z,3.73
2022-12-20T20:02:43.085Z,3.70
2022-12-20T20:05:14.901Z,3.67
2022-12-20T20:07:42.604Z,3.60
2022-12-20T20:10:09.861Z,3.83
2022-12-20T20:12:38.321Z,3.20
2022-12-20T20:15:07.812Z,3.43
2022-12-20T20:17:35.757Z,3.53
2022-12-20T20:20:05.050Z,3.53
2022-12-20T20:22:31.716Z,4.10
2022-12-20T20:25:00.569Z,3.73
2022-12-20T20:27:29.818Z,3.33
2022-12-20T20:29:58.047Z,3.77
2022-12-20T20:32:24.686Z,3.70
2022-12-20T20:34:53.750Z,3.00
2022-12-20T20:37:20.449Z,3.50
2022-12-20T20:39:49.531Z,3.27
2022-12-20T20:42:23.181Z,3.47
2022-12-20T20:44:50.385Z,3.40
2022-12-20T20:47:20.477Z,3.63
2022-12-20T20:49:50.242Z,3.40
2022-12-20T20:52:17.007Z,3.43
2022-12-20T20:54:46.005Z,3.53
2022-12-20T20:57:12.780Z,3.90
2022-12-20T20:59:42.481Z,3.23
2022-12-20T21:02:15.880Z,3.33
2022-12-20T21:04:53.589Z,3.43
2022-12-20T21:07:31.587Z,3.50
2022-12-20T21:09:58.528Z,3.55
2022-12-20T21:12:27.635Z,3.03
2022-12-20T21:15:21.142Z,3.30
2022-12-20T21:17:43.401Z,3.40
2022-12-20T21:20:10.507Z,3.30
2022-12-20T21:22:37.530Z,3.60
2022-12-20T21:25:05.627Z,3.60
2022-12-20T21:27:32.448Z,3.53
2022-12-20T21:29:59.148Z,3.63
2022-12-20T21:32:28.218Z,3.70
2022-12-20T21:34:57.188Z,4.00
2022-12-20T21:37:26.305Z,4.40
2022-12-20T21:39:53.584Z,5.00
2022-12-20T21:42:20.242Z,4.10
2022-12-20T21:44:46.914Z,4.60
2022-12-20T21:47:14.727Z,4.87
2022-12-20T21:49:41.409Z,4.40
2022-12-20T21:52:10.351Z,4.43
2022-12-20T21:54:37.016Z,4.23
2022-12-20T21:57:08.184Z,4.77
2022-12-20T21:59:34.921Z,4.50
2022-12-20T22:02:01.776Z,4.70
2022-12-20T22:04:28.645Z,4.70
2022-12-20T22:06:55.323Z,4.80
2022-12-20T22:09:21.970Z,4.10
2022-12-20T22:11:51.188Z,5.17
2022-12-20T22:14:20.180Z,5.10
2022-12-20T22:16:49.161Z,4.07
2022-12-20T22:19:18.241Z,4.50
2022-12-20T22:21:49.804Z,4.47
2022-12-20T22:24:20.643Z,4.70
2022-12-20T22:26:47.480Z,3.90
2022-12-20T22:29:14.166Z,4.30
2022-12-20T22:31:40.830Z,4.47
2022-12-20T22:34:07.558Z,4.23
2022-12-20T22:36:37.141Z,4.30
2022-12-20T22:39:03.958Z,3.73
2022-12-20T22:41:34.851Z,4.32
2022-12-20T22:44:02.262Z,3.90
2022-12-20T22:46:29.615Z,3.50
2022-12-20T22:48:59.446Z,4.10
2022-12-20T22:51:27.781Z,4.13
2022-12-20T22:53:56.747Z,3.93
2022-12-20T22:56:23.526Z,4.00
2022-12-20T22:58:50.629Z,4.00
2022-12-20T23:01:20.760Z,3.87
2022-12-20T23:03:48.284Z,3.43
2022-12-20T23:06:18.097Z,4.00
2022-12-20T23:08:47.704Z,4.13
2022-12-20T23:11:40.428Z,3.83
2022-12-20T23:14:30.266Z,3.90
2022-12-20T23:16:56.989Z,4.03
2022-12-20T23:19:23.674Z,3.40
2022-12-20T23:22:11.731Z,3.83
2022-12-20T23:24:43.639Z,3.97
2022-12-20T23:27:10.267Z,4.23
2022-12-20T23:29:36.935Z,3.53
2022-12-20T23:32:05.930Z,3.67
2022-12-20T23:34:35.091Z,3.73
2022-12-20T23:37:01.712Z,3.50
2022-12-20T23:39:28.363Z,3.43
2022-12-20T23:41:55.046Z,3.33
2022-12-20T23:44:21.882Z,3.67
2022-12-20T23:46:51.040Z,3.83
2022-12-20T23:49:20.136Z,3.50
2022-12-20T23:51:46.802Z,3.73
2022-12-20T23:54:13.538Z,3.73
2022-12-20T23:56:40.249Z,4.03
2022-12-20T23:59:09.154Z,3.90
